createdAt,value
2016-10-14T00:00:12.479Z,81.91
2016-10-14T00:01:12.397Z,81.52
2016-10-14T00:02:12.441Z,81.24
2016-10-14T00:03:12.490Z,81.14
2016-10-14T00:04:12.543Z,80.85
2016-10-14T00:05:12.610Z,80.85
2016-10-14T00:06:12.658Z,80.76
2016-10-14T00:07:12.715Z,80.37
2016-10-14T00:08:12.794Z,80.76
2016-10-14T00:09:12.825Z,80.66
2016-10-14T00:10:12.866Z,80.66
2016-10-14T00:11:13.429Z,80.37
2016-10-14T00:12:12.973Z,80.85
2016-10-14T00:13:13.032Z,80.46
2016-10-14T00:14:13.086Z,81.24
2016-10-14T00:15:13.136Z,80.85
2016-10-14T00:16:13.235Z,80.85
2016-10-14T00:17:13.251Z,80.94
2016-10-14T00:18:13.306Z,80.85
2016-10-14T00:19:13.345Z,81.24
2016-10-14T00:20:13.406Z,81.24
2016-10-14T00:21:13.461Z,81.24
2016-10-14T00:22:13.503Z,81.14
2016-10-14T00:23:13.549Z,81.33
2016-10-14T00:24:13.590Z,81.68
2016-10-14T00:25:13.643Z,81.2
2016-10-14T00:26:13.786Z,81.29
2016-10-14T00:27:13.739Z,82.06
2016-10-14T00:28:13.826Z,82.16
2016-10-14T00:29:13.862Z,83.03
2016-10-14T00:30:13.938Z,81.96
2016-10-14T00:31:14.127Z,81.77
2016-10-14T00:32:14.047Z,82.26
2016-10-14T00:33:14.085Z,82.16
2016-10-14T00:34:14.115Z,81.87
2016-10-14T00:35:14.198Z,81.77
2016-10-14T00:36:14.351Z,82.06
2016-10-14T00:37:14.266Z,81.87
2016-10-14T00:38:14.353Z,82.06
2016-10-14T00:39:14.404Z,83.03
2016-10-14T00:40:14.448Z,82.74
2016-10-14T00:41:14.499Z,83.22
2016-10-14T00:42:14.527Z,83.61
2016-10-14T00:43:14.592Z,82.83
2016-10-14T00:44:14.669Z,82.83
2016-10-14T00:45:14.722Z,82.54
2016-10-14T00:46:14.748Z,82.74
2016-10-14T00:47:14.831Z,82.26
2016-10-14T00:48:14.879Z,82.45
2016-10-14T00:49:14.915Z,82.74
2016-10-14T00:50:15.015Z,81.77
2016-10-14T00:51:15.047Z,82.83
2016-10-14T00:52:15.101Z,82.64
2016-10-14T00:53:15.118Z,83.41
2016-10-14T00:54:15.190Z,82.54
2016-10-14T00:55:15.224Z,83.03
2016-10-14T00:56:15.329Z,82.64
2016-10-14T00:57:15.353Z,82.64
2016-10-14T00:58:15.370Z,83.03
2016-10-14T00:59:15.447Z,83.7
2016-10-14T01:00:15.501Z,83.8
2016-10-14T01:01:15.555Z,83.7
2016-10-14T01:02:15.615Z,83.12
2016-10-14T01:03:15.641Z,82.64
2016-10-14T01:04:15.684Z,82.78
2016-10-14T01:05:15.755Z,82.87
2016-10-14T01:06:15.829Z,82.74
2016-10-14T01:07:15.990Z,82.49
2016-10-14T01:08:15.905Z,82.68
2016-10-14T01:09:15.942Z,82.26
2016-10-14T01:10:16.014Z,82.35
2016-10-14T01:11:16.082Z,82.64
2016-10-14T01:12:16.230Z,83.31
2016-10-14T01:13:16.165Z,83.61
2016-10-14T01:14:16.240Z,83.7
2016-10-14T01:15:16.276Z,83.61
2016-10-14T01:16:16.349Z,83.8
2016-10-14T01:17:16.518Z,83.61
2016-10-14T01:18:16.441Z,84.47
2016-10-14T01:19:16.512Z,83.99
2016-10-14T01:20:16.551Z,82.93
2016-10-14T01:21:16.589Z,82.93
2016-10-14T01:22:16.688Z,83.03
2016-10-14T01:23:16.694Z,83.7
2016-10-14T01:24:16.784Z,83.31
2016-10-14T01:25:16.855Z,82.93
2016-10-14T01:26:16.887Z,83.99
2016-10-14T01:27:16.926Z,83.8
2016-10-14T01:28:16.969Z,83.61
2016-10-14T01:29:17.007Z,83.89
2016-10-14T01:30:17.085Z,82.74
2016-10-14T01:31:17.147Z,82.83
2016-10-14T01:32:17.165Z,83.51
2016-10-14T01:33:17.252Z,83.85
2016-10-14T01:34:17.301Z,83.66
2016-10-14T01:35:17.326Z,83.75
2016-10-14T01:36:17.387Z,84.05
2016-10-14T01:37:17.467Z,84.23
2016-10-14T01:38:17.619Z,83.08
2016-10-14T01:39:17.571Z,83.66
2016-10-14T01:40:17.601Z,83.12
2016-10-14T01:41:17.639Z,83.66
2016-10-14T01:42:17.744Z,83.75
2016-10-14T01:43:17.875Z,84.33
2016-10-14T01:44:17.808Z,84.28
2016-10-14T01:45:17.891Z,84.95
2016-10-14T01:46:17.889Z,85.3
2016-10-14T01:47:17.977Z,84.72
2016-10-14T01:48:18.105Z,84.66
2016-10-14T01:49:18.090Z,84.56
2016-10-14T01:50:18.153Z,84.66
2016-10-14T01:51:18.175Z,84.66
2016-10-14T01:52:18.257Z,84.47
2016-10-14T01:53:18.269Z,84.76
2016-10-14T01:54:18.332Z,84.76
2016-10-14T01:55:18.370Z,84.38
2016-10-14T01:56:18.468Z,83.95
2016-10-14T01:57:18.508Z,84.86
2016-10-14T01:58:18.537Z,85.58
2016-10-14T01:59:18.605Z,85
2016-10-14T02:00:18.682Z,84.72
2016-10-14T02:01:18.697Z,85.34
2016-10-14T02:02:18.765Z,85.05
2016-10-14T02:03:19.320Z,84.66
2016-10-14T02:04:18.864Z,84.05
2016-10-14T02:05:18.918Z,84.56
2016-10-14T02:06:18.964Z,84.76
2016-10-14T02:07:19.024Z,83.7
2016-10-14T02:08:19.594Z,83.85
2016-10-14T02:09:19.201Z,83.85
2016-10-14T02:10:19.145Z,83.61
2016-10-14T02:11:19.229Z,83.47
2016-10-14T02:12:19.288Z,83.66
2016-10-14T02:13:19.340Z,83.89
2016-10-14T02:14:19.474Z,83.85
2016-10-14T02:15:19.435Z,83.37
2016-10-14T02:16:19.505Z,84.23
2016-10-14T02:17:19.554Z,85.1
2016-10-14T02:18:19.582Z,84.56
2016-10-14T02:19:19.751Z,84.62
2016-10-14T02:20:19.692Z,84.33
2016-10-14T02:21:19.780Z,84.33
2016-10-14T02:22:19.789Z,84.23
2016-10-14T02:23:19.871Z,84.62
2016-10-14T02:24:19.877Z,84.62
2016-10-14T02:25:19.976Z,84.23
2016-10-14T02:26:20.031Z,83.47
2016-10-14T02:27:20.088Z,83.61
2016-10-14T02:28:20.090Z,83.37
2016-10-14T02:29:20.198Z,83.56
2016-10-14T02:30:20.254Z,84.23
2016-10-14T02:31:20.251Z,83.75
2016-10-14T02:32:20.347Z,84.18
2016-10-14T02:33:20.395Z,83.61
2016-10-14T02:34:20.440Z,83.03
2016-10-14T02:35:20.483Z,83.51
2016-10-14T02:36:20.533Z,83.22
2016-10-14T02:37:20.624Z,82.79
2016-10-14T02:38:20.673Z,83.08
2016-10-14T02:39:20.716Z,83.37
2016-10-14T02:40:20.763Z,84.56
2016-10-14T02:41:20.818Z,85.1
2016-10-14T02:42:20.843Z,85.1
2016-10-14T02:43:20.921Z,84.23
2016-10-14T02:44:20.976Z,84.18
2016-10-14T02:45:21.038Z,84.86
2016-10-14T02:46:21.078Z,84.38
2016-10-14T02:47:21.109Z,83.7
2016-10-14T02:48:21.196Z,83.7
2016-10-14T02:49:21.205Z,83.8
2016-10-14T02:50:21.386Z,84.18
2016-10-14T02:51:21.320Z,83.8
2016-10-14T02:52:21.355Z,83.61
2016-10-14T02:53:21.441Z,83.7
2016-10-14T02:54:21.480Z,83.61
2016-10-14T02:55:21.655Z,83.7
2016-10-14T02:56:21.584Z,83.89
2016-10-14T02:57:21.654Z,84.09
2016-10-14T02:58:21.699Z,83.41
2016-10-14T02:59:21.792Z,83.8
2016-10-14T03:00:21.876Z,83.61
2016-10-14T03:01:21.842Z,83.8
2016-10-14T03:02:21.922Z,84.09
2016-10-14T03:03:21.968Z,84.09
2016-10-14T03:04:22.014Z,84.38
2016-10-14T03:05:22.039Z,83.51
2016-10-14T03:06:22.131Z,84.28
2016-10-14T03:07:22.199Z,84.86
2016-10-14T03:08:22.224Z,84.47
2016-10-14T03:09:22.259Z,84.18
2016-10-14T03:10:22.369Z,83.7
2016-10-14T03:11:22.375Z,83.41
2016-10-14T03:12:22.436Z,84.09
2016-10-14T03:13:22.485Z,83.7
2016-10-14T03:14:22.540Z,84.09
2016-10-14T03:15:22.606Z,83.51
2016-10-14T03:16:22.644Z,83.41
2016-10-14T03:17:22.699Z,83.7
2016-10-14T03:18:22.768Z,83.89
2016-10-14T03:19:22.810Z,83.8
2016-10-14T03:20:22.867Z,83.89
2016-10-14T03:21:22.893Z,83.51
2016-10-14T03:22:22.954Z,83.61
2016-10-14T03:23:23.021Z,84.47
2016-10-14T03:24:23.044Z,84.38
2016-10-14T03:25:23.109Z,84.38
2016-10-14T03:26:23.174Z,83.99
2016-10-14T03:27:23.202Z,84.38
2016-10-14T03:28:23.321Z,84.62
2016-10-14T03:29:23.306Z,85.05
2016-10-14T03:30:23.377Z,84.81
2016-10-14T03:31:24.097Z,85.05
2016-10-14T03:32:23.479Z,84.66
2016-10-14T03:33:23.551Z,85.63
2016-10-14T03:34:23.582Z,84.95
2016-10-14T03:35:23.687Z,84.76
2016-10-14T03:36:23.793Z,84.86
2016-10-14T03:37:23.792Z,85.24
2016-10-14T03:38:24.354Z,84.47
2016-10-14T03:39:23.875Z,84.76
2016-10-14T03:40:23.923Z,84.76
2016-10-14T03:41:23.990Z,84.56
2016-10-14T03:42:24.022Z,85.24
2016-10-14T03:43:24.087Z,84.56
2016-10-14T03:44:24.144Z,84.66
2016-10-14T03:45:24.177Z,84.56
2016-10-14T03:46:24.210Z,84.66
2016-10-14T03:47:24.290Z,84.56
2016-10-14T03:48:24.357Z,84.76
2016-10-14T03:49:24.369Z,84.56
2016-10-14T03:50:24.411Z,84.47
2016-10-14T03:51:24.526Z,84.86
2016-10-14T03:52:24.542Z,84.76
2016-10-14T03:53:24.587Z,84.95
2016-10-14T03:54:24.667Z,85.34
2016-10-14T03:55:25.221Z,85.14
2016-10-14T03:56:24.745Z,85.05
2016-10-14T03:57:24.918Z,84.86
2016-10-14T03:58:24.843Z,85.05
2016-10-14T03:59:24.949Z,85.14
2016-10-14T04:00:24.968Z,84.86
2016-10-14T04:01:25.025Z,85.43
2016-10-14T04:02:25.207Z,85.43
2016-10-14T04:03:25.134Z,85.43
2016-10-14T04:04:25.189Z,85.43
2016-10-14T04:05:25.229Z,85.43
2016-10-14T04:06:25.290Z,85.24
2016-10-14T04:07:25.337Z,85.53
2016-10-14T04:08:25.919Z,85.2
2016-10-14T04:09:25.463Z,85.63
2016-10-14T04:10:25.519Z,85.05
2016-10-14T04:11:25.555Z,84.86
2016-10-14T04:12:25.622Z,85.14
2016-10-14T04:13:25.675Z,85.05
2016-10-14T04:14:25.708Z,84.66
2016-10-14T04:15:26.280Z,84.66
2016-10-14T04:16:25.800Z,85.14
2016-10-14T04:17:25.859Z,85.14
2016-10-14T04:18:25.930Z,85.14
2016-10-14T04:19:25.955Z,84.86
2016-10-14T04:20:26.014Z,84.47
2016-10-14T04:21:26.088Z,84.66
2016-10-14T04:22:26.131Z,84.76
2016-10-14T04:23:26.292Z,85.43
2016-10-14T04:24:26.215Z,85.14
2016-10-14T04:25:26.281Z,85.53
2016-10-14T04:26:26.341Z,85.43
2016-10-14T04:27:26.407Z,85.53
2016-10-14T04:28:26.583Z,85.43
2016-10-14T04:29:26.485Z,85.58
2016-10-14T04:30:26.548Z,85.49
2016-10-14T04:31:26.633Z,85.68
2016-10-14T04:32:26.669Z,86.93
2016-10-14T04:33:26.713Z,87.03
2016-10-14T04:34:26.754Z,86.93
2016-10-14T04:35:26.838Z,87.03
2016-10-14T04:36:26.878Z,86.65
2016-10-14T04:37:26.914Z,86.26
2016-10-14T04:38:26.992Z,86.65
2016-10-14T04:39:27.016Z,87.12
2016-10-14T04:40:27.070Z,87.22
2016-10-14T04:41:27.127Z,86.74
2016-10-14T04:42:27.177Z,86.65
2016-10-14T04:43:27.224Z,86.55
2016-10-14T04:44:27.302Z,86.83
2016-10-14T04:45:27.332Z,86.45
2016-10-14T04:46:27.406Z,86.01
2016-10-14T04:47:27.453Z,86.65
2016-10-14T04:48:27.508Z,86.26
2016-10-14T04:49:27.659Z,86.55
2016-10-14T04:50:27.612Z,86.26
2016-10-14T04:51:27.679Z,86.83
2016-10-14T04:52:27.713Z,87.26
2016-10-14T04:53:27.748Z,86.55
2016-10-14T04:54:27.927Z,86.83
2016-10-14T04:55:27.904Z,87.26
2016-10-14T04:56:27.937Z,86.93
2016-10-14T04:57:28.480Z,86.74
2016-10-14T04:58:28.019Z,86.78
2016-10-14T04:59:28.197Z,86.65
2016-10-14T05:00:28.125Z,87.03
2016-10-14T05:01:28.181Z,87.03
2016-10-14T05:02:28.262Z,86.93
2016-10-14T05:03:28.279Z,87.32
2016-10-14T05:04:28.334Z,87.41
2016-10-14T05:05:28.404Z,87.7
2016-10-14T05:06:28.439Z,87.32
2016-10-14T05:07:28.517Z,87.8
2016-10-14T05:08:28.589Z,88.09
2016-10-14T05:09:28.618Z,87.9
2016-10-14T05:10:28.648Z,87.9
2016-10-14T05:11:28.725Z,88.18
2016-10-14T05:12:28.770Z,88.18
2016-10-14T05:13:28.813Z,88.38
2016-10-14T05:14:28.885Z,88.28
2016-10-14T05:15:28.917Z,88.38
2016-10-14T05:16:28.984Z,87.9
2016-10-14T05:17:29.004Z,88.28
2016-10-14T05:18:29.132Z,87.7
2016-10-14T05:19:29.172Z,88.09
2016-10-14T05:20:29.296Z,87.99
2016-10-14T05:21:29.231Z,87.8
2016-10-14T05:22:29.289Z,87.9
2016-10-14T05:23:29.870Z,88.57
2016-10-14T05:24:29.393Z,88.18
2016-10-14T05:25:29.564Z,88.09
2016-10-14T05:26:29.506Z,88.38
2016-10-14T05:27:29.563Z,87.7
2016-10-14T05:28:29.606Z,87.41
2016-10-14T05:29:29.680Z,87.41
2016-10-14T05:30:29.827Z,88.18
2016-10-14T05:31:29.777Z,88.09
2016-10-14T05:32:29.833Z,87.9
2016-10-14T05:33:29.888Z,87.9
2016-10-14T05:34:29.903Z,88.18
2016-10-14T05:35:30.012Z,88.18
2016-10-14T05:36:30.556Z,88.38
2016-10-14T05:37:30.084Z,88.09
2016-10-14T05:38:30.179Z,88.09
2016-10-14T05:39:30.204Z,88.28
2016-10-14T05:40:30.455Z,87.32
2016-10-14T05:41:30.297Z,87.32
2016-10-14T05:42:30.340Z,87.51
2016-10-14T05:43:30.407Z,87.51
2016-10-14T05:44:30.979Z,87.55
2016-10-14T05:45:30.502Z,87.55
2016-10-14T05:46:30.563Z,87.99
2016-10-14T05:47:30.600Z,87.9
2016-10-14T05:48:30.671Z,88.09
2016-10-14T05:49:30.734Z,88.38
2016-10-14T05:50:30.820Z,88.57
2016-10-14T05:51:30.816Z,88.76
2016-10-14T05:52:30.883Z,88.76
2016-10-14T05:53:30.926Z,88.67
2016-10-14T05:54:30.980Z,88.76
2016-10-14T05:55:31.021Z,88.57
2016-10-14T05:56:31.185Z,88.76
2016-10-14T05:57:31.134Z,88.95
2016-10-14T05:58:31.217Z,88.67
2016-10-14T05:59:31.245Z,88.67
2016-10-14T06:00:31.799Z,88.47
2016-10-14T06:01:31.456Z,88.57
2016-10-14T06:02:31.405Z,89.34
2016-10-14T06:03:31.493Z,89.15
2016-10-14T06:04:31.513Z,89.05
2016-10-14T06:05:31.608Z,89.53
2016-10-14T06:06:31.757Z,89.34
2016-10-14T06:07:32.209Z,89.34
2016-10-14T06:08:31.705Z,89.15
2016-10-14T06:09:31.785Z,89.53
2016-10-14T06:10:31.841Z,89.24
2016-10-14T06:11:31.906Z,88.67
2016-10-14T06:12:31.949Z,88.57
2016-10-14T06:13:31.993Z,89.24
2016-10-14T06:14:32.027Z,89.05
2016-10-14T06:15:32.082Z,89.24
2016-10-14T06:16:32.157Z,89.43
2016-10-14T06:17:32.173Z,89.34
2016-10-14T06:18:32.227Z,89.72
2016-10-14T06:19:32.328Z,89.05
2016-10-14T06:20:32.370Z,89.05
2016-10-14T06:21:32.414Z,89.63
2016-10-14T06:22:32.463Z,89.34
2016-10-14T06:23:32.516Z,89.82
2016-10-14T06:24:32.567Z,89.43
2016-10-14T06:25:32.659Z,89.63
2016-10-14T06:26:32.659Z,89.43
2016-10-14T06:27:32.734Z,89.43
2016-10-14T06:28:32.784Z,89.53
2016-10-14T06:29:32.825Z,89.82
2016-10-14T06:30:32.916Z,89.63
2016-10-14T06:31:33.470Z,89.63
2016-10-14T06:32:33.079Z,89.72
2016-10-14T06:33:33.073Z,89.43
2016-10-14T06:34:33.085Z,89.72
2016-10-14T06:35:33.153Z,89.72
2016-10-14T06:36:33.201Z,89.43
2016-10-14T06:37:33.376Z,89.72
2016-10-14T06:38:33.280Z,89.15
2016-10-14T06:39:33.391Z,89.34
2016-10-14T06:40:33.415Z,89.72
2016-10-14T06:41:33.443Z,89.63
2016-10-14T06:42:33.608Z,89.53
2016-10-14T06:43:34.078Z,89.82
2016-10-14T06:44:33.652Z,89.63
2016-10-14T06:45:33.656Z,89.82
2016-10-14T06:46:33.763Z,89.72
2016-10-14T06:47:33.786Z,89.43
2016-10-14T06:48:33.843Z,89.63
2016-10-14T06:49:33.904Z,89.72
2016-10-14T06:50:33.942Z,89.82
2016-10-14T06:51:33.988Z,89.82
2016-10-14T06:52:34.072Z,89.72
2016-10-14T06:53:34.083Z,89.53
2016-10-14T06:54:34.157Z,89.05
2016-10-14T06:55:34.189Z,89.43
2016-10-14T06:56:34.273Z,89.05
2016-10-14T06:57:34.309Z,89.34
2016-10-14T06:58:34.368Z,89.15
2016-10-14T06:59:34.919Z,88.57
2016-10-14T07:00:34.468Z,88.76
2016-10-14T07:01:34.541Z,88.57
2016-10-14T07:02:34.601Z,89.34
2016-10-14T07:03:34.620Z,89.34
2016-10-14T07:04:34.686Z,89.34
2016-10-14T07:05:34.743Z,89.53
2016-10-14T07:06:34.780Z,89.53
2016-10-14T07:07:34.840Z,89.92
2016-10-14T07:08:35.029Z,89.72
2016-10-14T07:09:34.921Z,89.43
2016-10-14T07:10:35.006Z,89.72
2016-10-14T07:11:35.060Z,89.72
2016-10-14T07:12:35.094Z,90.3
2016-10-14T07:13:35.285Z,90.3
2016-10-14T07:14:35.223Z,90.3
2016-10-14T07:15:35.250Z,90.3
2016-10-14T07:16:35.316Z,89.92
2016-10-14T07:17:35.380Z,89.43
2016-10-14T07:18:35.418Z,89.53
2016-10-14T07:19:35.459Z,89.34
2016-10-14T07:20:35.533Z,89.63
2016-10-14T07:21:35.593Z,89.53
2016-10-14T07:22:35.628Z,89.82
2016-10-14T07:23:35.699Z,90.11
2016-10-14T07:24:35.759Z,89.63
2016-10-14T07:25:35.778Z,89.34
2016-10-14T07:26:35.874Z,89.72
2016-10-14T07:27:35.888Z,89.82
2016-10-14T07:28:35.929Z,89.72
2016-10-14T07:29:35.991Z,89.63
2016-10-14T07:30:36.070Z,89.63
2016-10-14T07:31:36.092Z,89.72
2016-10-14T07:32:36.150Z,89.63
2016-10-14T07:33:36.203Z,89.72
2016-10-14T07:34:36.366Z,89.43
2016-10-14T07:35:36.340Z,89.63
2016-10-14T07:36:36.338Z,89.53
2016-10-14T07:37:36.469Z,89.72
2016-10-14T07:38:36.480Z,89.53
2016-10-14T07:39:36.650Z,90.4
2016-10-14T07:40:36.573Z,90.4
2016-10-14T07:41:36.651Z,90.11
2016-10-14T07:42:37.201Z,89.53
2016-10-14T07:43:36.719Z,89.43
2016-10-14T07:44:36.909Z,89.72
2016-10-14T07:45:36.851Z,89.63
2016-10-14T07:46:36.867Z,90.5
2016-10-14T07:47:36.951Z,89.63
2016-10-14T07:48:37.015Z,89.53
2016-10-14T07:49:37.041Z,90.3
2016-10-14T07:50:37.108Z,90.11
2016-10-14T07:51:37.133Z,90.01
2016-10-14T07:52:37.224Z,90.11
2016-10-14T07:53:37.279Z,90.2
2016-10-14T07:54:37.313Z,90.3
2016-10-14T07:55:37.397Z,90.5
2016-10-14T07:56:37.427Z,90.59
2016-10-14T07:57:37.497Z,90.59
2016-10-14T07:58:37.552Z,90.3
2016-10-14T07:59:37.564Z,90.4
2016-10-14T08:00:37.638Z,90.3
2016-10-14T08:01:37.696Z,90.3
2016-10-14T08:02:38.244Z,90.11
2016-10-14T08:03:37.808Z,89.53
2016-10-14T08:04:37.862Z,90.2
2016-10-14T08:05:37.893Z,90.01
2016-10-14T08:06:37.943Z,90.2
2016-10-14T08:07:38.001Z,90.2
2016-10-14T08:08:38.029Z,90.11
2016-10-14T08:09:38.090Z,90.11
2016-10-14T08:10:38.239Z,90.4
2016-10-14T08:11:38.229Z,90.4
2016-10-14T08:12:38.247Z,91.36
2016-10-14T08:13:38.301Z,90.5
2016-10-14T08:14:38.378Z,90.5
2016-10-14T08:15:38.538Z,90.88
2016-10-14T08:16:38.477Z,90.59
2016-10-14T08:17:38.513Z,90.11
2016-10-14T08:18:38.619Z,90.2
2016-10-14T08:19:38.651Z,90.11
2016-10-14T08:20:38.797Z,90.2
2016-10-14T08:21:38.753Z,90.3
2016-10-14T08:22:38.775Z,90.3
2016-10-14T08:23:38.851Z,90.5
2016-10-14T08:24:38.910Z,90.5
2016-10-14T08:25:38.941Z,90.69
2016-10-14T08:26:38.994Z,90.11
2016-10-14T08:27:39.073Z,89.92
2016-10-14T08:28:39.084Z,90.11
2016-10-14T08:29:39.184Z,89.63
2016-10-14T08:30:39.239Z,89.63
2016-10-14T08:31:39.269Z,89.82
2016-10-14T08:32:39.315Z,89.72
2016-10-14T08:33:39.398Z,89.63
2016-10-14T08:34:39.416Z,89.53
2016-10-14T08:35:39.458Z,89.63
2016-10-14T08:36:39.537Z,89.82
2016-10-14T08:37:39.587Z,90.3
2016-10-14T08:38:39.652Z,90.3
2016-10-14T08:39:39.664Z,90.11
2016-10-14T08:40:39.756Z,89.72
2016-10-14T08:41:39.799Z,90.01
2016-10-14T08:42:39.875Z,90.11
2016-10-14T08:43:39.887Z,89.82
2016-10-14T08:44:39.957Z,90.69
2016-10-14T08:45:39.985Z,90.69
2016-10-14T08:46:40.071Z,90.5
2016-10-14T08:47:40.102Z,90.5
2016-10-14T08:48:40.169Z,90.3
2016-10-14T08:49:40.249Z,90.4
2016-10-14T08:50:40.282Z,90.78
2016-10-14T08:51:40.417Z,90.59
2016-10-14T08:52:40.360Z,91.17
2016-10-14T08:53:40.427Z,91.07
2016-10-14T08:54:40.477Z,90.88
2016-10-14T08:55:41.088Z,90.78
2016-10-14T08:56:40.709Z,90.97
2016-10-14T08:57:40.649Z,91.07
2016-10-14T08:58:40.685Z,90.78
2016-10-14T08:59:40.762Z,90.69
2016-10-14T09:00:40.812Z,90.97
2016-10-14T09:01:40.942Z,90.78
2016-10-14T09:02:40.921Z,91.07
2016-10-14T09:03:40.978Z,91.07
2016-10-14T09:04:40.996Z,90.5
2016-10-14T09:05:41.072Z,90.4
2016-10-14T09:06:41.117Z,90.5
2016-10-14T09:07:41.163Z,90.4
2016-10-14T09:08:41.207Z,90.55
2016-10-14T09:09:41.263Z,90.78
2016-10-14T09:10:41.324Z,91.17
2016-10-14T09:11:41.372Z,90.88
2016-10-14T09:12:41.432Z,90.88
2016-10-14T09:13:41.511Z,91.27
2016-10-14T09:14:41.533Z,91.07
2016-10-14T09:15:41.607Z,90.4
2016-10-14T09:16:41.639Z,90.4
2016-10-14T09:17:41.690Z,90.11
2016-10-14T09:18:41.778Z,90.01
2016-10-14T09:19:41.809Z,90.3
2016-10-14T09:20:41.866Z,89.43
2016-10-14T09:21:41.904Z,89.53
2016-10-14T09:22:41.964Z,90.01
2016-10-14T09:23:42.020Z,89.82
2016-10-14T09:24:42.080Z,89.72
2016-10-14T09:25:42.130Z,89.92
2016-10-14T09:26:42.191Z,89.82
2016-10-14T09:27:42.273Z,89.53
2016-10-14T09:28:42.251Z,89.82
2016-10-14T09:29:42.340Z,90.5
2016-10-14T09:30:42.388Z,89.72
2016-10-14T09:31:42.437Z,89.82
2016-10-14T09:32:42.604Z,90.2
2016-10-14T09:33:42.545Z,90.01
2016-10-14T09:34:42.606Z,89.82
2016-10-14T09:35:42.631Z,90.2
2016-10-14T09:36:42.681Z,90.59
2016-10-14T09:37:42.845Z,90.11
2016-10-14T09:38:42.831Z,90.2
2016-10-14T09:39:42.849Z,90.01
2016-10-14T09:40:42.913Z,90.11
2016-10-14T09:41:42.965Z,90.01
2016-10-14T09:42:43.015Z,89.43
2016-10-14T09:43:43.068Z,89.24
2016-10-14T09:44:43.126Z,89.86
2016-10-14T09:45:43.192Z,89.53
2016-10-14T09:46:43.256Z,89.43
2016-10-14T09:47:43.283Z,89.29
2016-10-14T09:48:43.849Z,89.77
2016-10-14T09:49:43.355Z,89.82
2016-10-14T09:50:43.439Z,88.61
2016-10-14T09:51:43.491Z,88.67
2016-10-14T09:52:43.526Z,89.19
2016-10-14T09:53:43.629Z,89.39
2016-10-14T09:54:43.667Z,89.34
2016-10-14T09:55:43.700Z,89.19
2016-10-14T09:56:43.763Z,88.9
2016-10-14T09:57:43.816Z,89.77
2016-10-14T09:58:43.981Z,89.48
2016-10-14T09:59:43.910Z,89.19
2016-10-14T10:00:43.962Z,89.39
2016-10-14T10:01:44.029Z,88.81
2016-10-14T10:02:44.066Z,89.48
2016-10-14T10:03:44.788Z,89.19
2016-10-14T10:04:44.154Z,89.29
2016-10-14T10:05:44.236Z,89.58
2016-10-14T10:06:44.318Z,89.67
2016-10-14T10:07:44.338Z,89.67
2016-10-14T10:08:44.406Z,89.09
2016-10-14T10:09:44.460Z,89.48
2016-10-14T10:10:44.508Z,89.39
2016-10-14T10:11:44.585Z,89.77
2016-10-14T10:12:44.602Z,89.67
2016-10-14T10:13:44.659Z,89.77
2016-10-14T10:14:44.726Z,88.81
2016-10-14T10:15:44.785Z,88.51
2016-10-14T10:16:44.827Z,88.65
2016-10-14T10:17:44.893Z,88.42
2016-10-14T10:18:44.926Z,88.46
2016-10-14T10:19:45.520Z,88.27
2016-10-14T10:20:45.039Z,88.65
2016-10-14T10:21:45.088Z,88.81
2016-10-14T10:22:45.120Z,88.56
2016-10-14T10:23:45.196Z,88.46
2016-10-14T10:24:45.236Z,87.21
2016-10-14T10:25:45.308Z,88.37
2016-10-14T10:26:45.331Z,88.08
2016-10-14T10:27:45.376Z,88.17
2016-10-14T10:28:45.445Z,88.27
2016-10-14T10:29:45.586Z,88.46
2016-10-14T10:30:46.059Z,87.98
2016-10-14T10:31:45.630Z,87.5
2016-10-14T10:32:45.699Z,87.4
2016-10-14T10:33:45.732Z,87.7
2016-10-14T10:34:45.880Z,87.88
2016-10-14T10:35:45.846Z,87.3
2016-10-14T10:36:45.874Z,87.88
2016-10-14T10:37:45.931Z,87.5
2016-10-14T10:38:46.022Z,87.5
2016-10-14T10:39:46.041Z,87.4
2016-10-14T10:40:46.096Z,87.21
2016-10-14T10:41:46.137Z,87.12
2016-10-14T10:42:46.216Z,86.35
2016-10-14T10:43:46.249Z,86.05
2016-10-14T10:44:46.296Z,87.02
2016-10-14T10:45:46.382Z,87.02
2016-10-14T10:46:46.436Z,87.21
2016-10-14T10:47:46.493Z,87.02
2016-10-14T10:48:46.541Z,87.35
2016-10-14T10:49:46.588Z,86.68
2016-10-14T10:50:46.615Z,86.58
2016-10-14T10:51:46.686Z,86
2016-10-14T10:52:46.712Z,85.33
2016-10-14T10:53:46.825Z,85.81
2016-10-14T10:54:46.834Z,85.91
2016-10-14T10:55:46.930Z,85.91
2016-10-14T10:56:46.963Z,85.71
2016-10-14T10:57:47.013Z,84.65
2016-10-14T10:58:47.074Z,84.65
2016-10-14T10:59:47.156Z,84.27
2016-10-14T11:00:47.185Z,84.36
2016-10-14T11:01:47.233Z,83.88
2016-10-14T11:02:47.287Z,83.78
2016-10-14T11:03:47.347Z,83.98
2016-10-14T11:04:47.390Z,84.75
2016-10-14T11:05:47.566Z,84.55
2016-10-14T11:06:47.518Z,84.46
2016-10-14T11:07:47.541Z,84.94
2016-10-14T11:08:47.601Z,85.23
2016-10-14T11:09:47.657Z,84.07
2016-10-14T11:10:47.807Z,84.65
2016-10-14T11:11:47.740Z,84.46
2016-10-14T11:12:47.809Z,84.27
2016-10-14T11:13:47.878Z,84.36
2016-10-14T11:14:47.911Z,84.27
2016-10-14T11:15:48.041Z,84.84
2016-10-14T11:16:48.035Z,84.94
2016-10-14T11:17:48.113Z,84.84
2016-10-14T11:18:48.135Z,84.36
2016-10-14T11:19:48.186Z,84.55
2016-10-14T11:20:48.329Z,84.65
2016-10-14T11:21:48.309Z,83.92
2016-10-14T11:22:48.373Z,84.59
2016-10-14T11:23:48.397Z,84.41
2016-10-14T11:24:48.463Z,84.11
2016-10-14T11:25:48.533Z,84.31
2016-10-14T11:26:48.544Z,84.31
2016-10-14T11:27:49.132Z,84.01
2016-10-14T11:28:48.649Z,84.01
2016-10-14T11:29:48.741Z,84.31
2016-10-14T11:30:48.763Z,83.63
2016-10-14T11:31:48.825Z,82.96
2016-10-14T11:32:49.425Z,83.73
2016-10-14T11:33:48.941Z,83.48
2016-10-14T11:34:49.008Z,83.19
2016-10-14T11:35:49.057Z,82.32
2016-10-14T11:36:49.121Z,82.03
2016-10-14T11:37:49.179Z,82.13
2016-10-14T11:38:49.235Z,81.78
2016-10-14T11:39:49.263Z,80.91
2016-10-14T11:40:49.309Z,80.62
2016-10-14T11:41:49.384Z,81.49
2016-10-14T11:42:49.421Z,80.62
2016-10-14T11:43:49.519Z,80.82
2016-10-14T11:44:49.549Z,79.6
2016-10-14T11:45:49.613Z,78.83
2016-10-14T11:46:49.658Z,78.64
2016-10-14T11:47:49.721Z,78.54
2016-10-14T11:48:49.753Z,79.12
2016-10-14T11:49:49.822Z,79.12
2016-10-14T11:50:49.849Z,79.22
2016-10-14T11:51:50.019Z,78.73
2016-10-14T11:52:50.509Z,78.06
2016-10-14T11:53:50.048Z,78
2016-10-14T11:54:50.104Z,77.51
2016-10-14T11:55:50.145Z,76.93
2016-10-14T11:56:50.286Z,76.45
2016-10-14T11:57:50.244Z,76.84
2016-10-14T11:58:50.296Z,77.13
2016-10-14T11:59:50.348Z,77.03
2016-10-14T12:00:50.410Z,76.49
2016-10-14T12:01:50.570Z,76.84
2016-10-14T12:02:50.512Z,76.1
2016-10-14T12:03:50.566Z,75.43
2016-10-14T12:04:50.627Z,76.59
2016-10-14T12:05:50.702Z,76.49
2016-10-14T12:06:50.769Z,75.91
2016-10-14T12:07:50.781Z,75.33
2016-10-14T12:08:50.867Z,74.65
2016-10-14T12:09:50.895Z,74.75
2016-10-14T12:10:50.975Z,74.85
2016-10-14T12:11:51.031Z,74.21
2016-10-14T12:12:51.085Z,74.11
2016-10-14T12:13:51.140Z,74.69
2016-10-14T12:14:51.171Z,73.43
2016-10-14T12:15:51.227Z,72.66
2016-10-14T12:16:51.285Z,73.53
2016-10-14T12:17:51.349Z,73.04
2016-10-14T12:18:51.428Z,73.43
2016-10-14T12:19:51.488Z,73.63
2016-10-14T12:20:51.511Z,73.47
2016-10-14T12:21:51.594Z,72.11
2016-10-14T12:22:51.614Z,71.92
2016-10-14T12:23:51.656Z,70.47
2016-10-14T12:24:51.772Z,72.11
2016-10-14T12:25:51.809Z,72.3
2016-10-14T12:26:51.848Z,71.34
2016-10-14T12:27:52.025Z,72.4
2016-10-14T12:28:51.992Z,72.89
2016-10-14T12:29:52.014Z,72.02
2016-10-14T12:30:52.066Z,72.3
2016-10-14T12:31:52.149Z,71.08
2016-10-14T12:32:52.794Z,70.66
2016-10-14T12:33:52.268Z,70.66
2016-10-14T12:34:52.331Z,70.6
2016-10-14T12:35:52.336Z,70.11
2016-10-14T12:36:52.440Z,70.6
2016-10-14T12:37:52.445Z,70.01
2016-10-14T12:38:52.500Z,70.4
2016-10-14T12:39:52.593Z,70.89
2016-10-14T12:40:52.628Z,69.63
2016-10-14T12:41:53.266Z,70.21
2016-10-14T12:42:52.793Z,68.66
2016-10-14T12:43:52.790Z,69.05
2016-10-14T12:44:53.431Z,69.24
2016-10-14T12:45:52.927Z,67.98
2016-10-14T12:46:52.974Z,67.69
2016-10-14T12:47:53.061Z,67.3
2016-10-14T12:48:53.080Z,67.11
2016-10-14T12:49:53.164Z,67.4
2016-10-14T12:50:53.393Z,67.69
2016-10-14T12:51:53.286Z,68.27
2016-10-14T12:52:53.308Z,67.88
2016-10-14T12:53:53.455Z,67.02
2016-10-14T12:54:53.392Z,67.11
2016-10-14T12:55:53.450Z,67.3
2016-10-14T12:56:53.564Z,67.72